map of RRT home
RRT - Airport
Location
City:  Warroad, Minnesota, United States
Name:Warroad International Memorial
ICAO:KRRT
IATA:RRT
FAA LID:RRT

Details
Type:Airport (Airfield)
Use:Public/Civil, International (customs landing rights)
Latitude:4856'29"N (48.941472)
Longitude:9520'54"W (-95.348471)
Datum:WGS 1984
Elevation:1075 ft (328 m)
Variation:1.56E (WMM2015v2 magnetic declination)
-0.03 annual change
Runways:2
Longest:5400 × 100 ft (1646 × 30.5 m), paved

Time
Time Zone:UTC-6 (DST-5)
Local Time:

Weather
METAR:KRRT 041415Z AUTO 02009G17KT 1SM -SN BKN007 OVC012 M18/M21 A2996 RMK AO2

Related Locations
Nearby:
Farthest:YWKS: 10879 mi / 17508 km
Wilkins Runway (Casey), Upper Peterson Glacier, AQ

Find:

   beyond  
but within

Other Information
Maps:
NOTAMs:
Links:
Sources:

  
  • flag of United States
  • flag of Minnesota
  

Sectional Chart

Flight Planning
at skyvector.com

Satellite Image

Google Maps Satellite view

 

Copyright © 2004-2019 Karl L. Swartz. All rights reserved.
The Great Circle Mapper name and logo are trademarks of the Great Circle Mapper.
All other trademarks mentioned herein belong to their respective owners.
Please see credits for attibutions and further copyright information.

  Follow gcmap on Facebook Follow gcmap on Twitter GCmap on LinkedIn

hCard Microformat

Geo Microformat